Time;durP1;ratioP1;P1;durP2;ratioP2;P2;SDS_P1;SDS_P2;PMS_P1;PMS_P2;Temp;Humidity;BMP_temperature;BMP_pressure;BME280_temperature;BME280_humidity;BME280_pressure;Samples;Min_cycle;Max_cycle;Signal;HPM_P1;HPM_P2
2022/01/29 00:02:52;;;;;;;5.60;0.85;;;;;;;1.66;66.75;101379.63;5589554;31;35129;-67
2022/01/29 00:05:56;;;;;;;2.25;1.12;;;;;;;1.60;68.33;101403.50;5589080;31;34019;-66
2022/01/29 00:08:58;;;;;;;3.65;1.00;;;;;;;1.53;69.43;101391.72;5589334;31;33941;-66
2022/01/29 00:12:01;;;;;;;2.08;0.88;;;;;;;1.38;70.90;101395.16;5589017;31;33920;-66
2022/01/29 00:15:05;;;;;;;2.58;0.80;;;;;;;1.24;72.60;101395.94;5588935;31;34257;-66
2022/01/29 00:18:08;;;;;;;3.58;0.80;;;;;;;1.13;73.62;101404.34;5588856;31;34416;-66
2022/01/29 00:21:11;;;;;;;1.55;0.70;;;;;;;1.06;74.64;101396.94;5588813;31;34722;-65
2022/01/29 00:24:13;;;;;;;3.37;0.90;;;;;;;0.96;75.21;101403.56;5588818;31;35278;-66
2022/01/29 00:27:18;;;;;;;2.47;1.08;;;;;;;0.86;75.23;101398.84;5588549;31;33979;-66
2022/01/29 00:30:25;;;;;;;4.53;1.10;;;;;;;0.84;75.43;101397.22;5588731;31;34244;-65
2022/01/29 00:33:28;;;;;;;2.37;0.82;;;;;;;0.76;75.56;101399.41;5588594;31;34174;-65
2022/01/29 00:36:31;;;;;;;2.95;0.95;;;;;;;0.73;75.56;101402.16;5590595;31;33931;-66
2022/01/29 00:39:34;;;;;;;1.48;0.70;;;;;;;0.77;75.41;101408.94;5577271;31;33998;-66
2022/01/29 00:42:37;;;;;;;3.87;1.05;;;;;;;0.74;75.88;101403.84;5590978;31;33902;-66
2022/01/29 00:45:41;;;;;;;2.87;0.95;;;;;;;0.83;75.91;101390.28;5591050;31;34032;-66
2022/01/29 00:48:44;;;;;;;3.03;1.00;;;;;;;0.92;75.72;101392.41;5590973;31;33996;-66
2022/01/29 00:51:46;;;;;;;4.15;1.02;;;;;;;0.91;75.98;101403.81;5591285;31;35153;-66
2022/01/29 00:54:49;;;;;;;3.25;0.80;;;;;;;0.90;76.08;101406.50;5591004;31;33984;-66
2022/01/29 00:57:52;;;;;;;2.92;0.65;;;;;;;0.85;76.51;101384.09;5590901;31;34586;-66
2022/01/29 01:00:55;;;;;;;6.10;1.27;;;;;;;0.80;77.11;101399.16;5590738;31;34145;-66
2022/01/29 01:03:58;;;;;;;2.67;0.80;;;;;;;0.79;77.53;101404.44;5590940;31;34659;-66
2022/01/29 01:07:01;;;;;;;4.62;1.10;;;;;;;0.72;78.45;101393.50;5590810;31;34853;-65
2022/01/29 01:10:06;;;;;;;3.80;0.98;;;;;;;0.68;78.51;101399.78;5590889;31;34159;-66
2022/01/29 01:13:10;;;;;;;3.28;0.90;;;;;;;0.69;78.74;101421.53;5577407;31;33989;-66
2022/01/29 01:16:12;;;;;;;2.95;1.27;;;;;;;0.62;79.30;101417.56;5591032;31;34115;-66
2022/01/29 01:19:16;;;;;;;3.35;0.80;;;;;;;0.60;80.20;101432.44;5590727;31;33956;-66
2022/01/29 01:22:19;;;;;;;2.90;1.10;;;;;;;0.60;80.41;101437.66;5590657;31;34735;-66
2022/01/29 01:25:22;;;;;;;6.15;1.25;;;;;;;0.58;80.25;101434.31;5590645;31;35216;-66
2022/01/29 01:28:25;;;;;;;4.50;1.12;;;;;;;0.59;80.21;101442.03;5590675;31;34365;-65
2022/01/29 01:31:28;;;;;;;4.75;1.02;;;;;;;0.56;81.05;101433.53;5589613;31;35070;-66
2022/01/29 01:34:35;;;;;;;7.12;1.17;;;;;;;0.44;81.54;101448.03;5589650;31;34009;-65
2022/01/29 01:37:50;;;;;;;3.55;1.20;;;;;;;0.48;80.86;101446.13;5589508;31;34662;-66
2022/01/29 01:41:01;;;;;;;3.05;1.20;;;;;;;0.43;80.63;101444.59;5589455;31;34005;-66
2022/01/29 01:44:05;;;;;;;6.03;1.35;;;;;;;0.44;79.98;101454.09;5575657;31;34542;-65
2022/01/29 01:47:08;;;;;;;4.47;1.30;;;;;;;0.44;79.33;101456.72;5589072;31;34065;-66
2022/01/29 01:50:11;;;;;;;3.35;1.10;;;;;;;0.46;79.19;101459.25;5575564;31;33991;-65
2022/01/29 01:53:13;;;;;;;2.05;0.90;;;;;;;0.43;79.26;101464.63;5589407;31;34700;-65
2022/01/29 01:56:16;;;;;;;3.33;1.20;;;;;;;0.22;80.43;101463.94;5589360;31;33963;-66
2022/01/29 01:59:19;;;;;;;4.80;1.65;;;;;;;0.26;80.73;101449.81;5589321;31;33972;-66
2022/01/29 02:02:22;;;;;;;6.70;1.30;;;;;;;0.27;81.21;101458.47;5589193;31;34517;-66
2022/01/29 02:05:26;;;;;;;4.47;1.33;;;;;;;0.24;81.93;101441.19;5575785;31;34376;-65
2022/01/29 02:08:28;;;;;;;3.85;1.10;;;;;;;0.15;82.39;101446.87;5589152;31;34484;-65
2022/01/29 02:11:31;;;;;;;4.35;1.35;;;;;;;0.28;80.11;101429.72;5575427;31;33935;-65
2022/01/29 02:14:35;;;;;;;4.00;1.20;;;;;;;0.35;79.04;101427.63;5589099;31;34645;-66
2022/01/29 02:17:38;;;;;;;5.35;1.10;;;;;;;0.38;78.97;101428.34;5589291;31;34063;-66
2022/01/29 02:20:43;;;;;;;6.87;1.25;;;;;;;0.35;78.34;101428.47;5588955;31;34761;-66
2022/01/29 02:23:46;;;;;;;3.25;1.15;;;;;;;0.49;75.56;101440.81;5589127;31;34206;-66
2022/01/29 02:26:49;;;;;;;4.00;1.10;;;;;;;0.84;72.93;101437.25;5589203;31;34336;-66
2022/01/29 02:29:52;;;;;;;2.08;0.70;;;;;;;0.81;72.68;101450.47;5554554;31;257051;-66
2022/01/29 02:32:55;;;;;;;3.05;0.95;;;;;;;0.94;72.04;101439.38;5576533;31;34134;-64
2022/01/29 02:35:58;;;;;;;4.85;1.10;;;;;;;0.83;72.16;101439.94;5590039;31;34096;-65
2022/01/29 02:39:01;;;;;;;3.47;1.17;;;;;;;0.83;72.19;101447.75;5589968;31;34069;-66
2022/01/29 02:42:04;;;;;;;6.80;1.23;;;;;;;0.92;71.09;101444.66;5590070;31;35207;-66
2022/01/29 02:45:07;;;;;;;3.08;1.00;;;;;;;0.85;71.28;101456.38;5589983;31;34040;-66
2022/01/29 02:48:11;;;;;;;3.22;0.88;;;;;;;0.81;71.47;101468.75;5576556;31;35281;-65
2022/01/29 02:51:15;;;;;;;4.18;1.08;;;;;;;0.80;71.70;101471.44;5589963;31;33991;-64
2022/01/29 02:54:19;;;;;;;4.12;1.10;;;;;;;0.66;72.12;101464.31;5590223;31;33992;-66
2022/01/29 02:57:21;;;;;;;2.42;0.88;;;;;;;0.85;70.87;101462.44;5588966;31;34119;-65
2022/01/29 03:00:25;;;;;;;1.77;0.93;;;;;;;0.91;70.65;101450.00;5589793;31;34604;-65
2022/01/29 03:03:28;;;;;;;3.12;0.80;;;;;;;1.03;69.46;101450.19;5589744;31;34213;-64
2022/01/29 03:06:31;;;;;;;4.82;1.10;;;;;;;1.01;69.29;101453.81;5589763;31;34075;-64
2022/01/29 03:09:34;;;;;;;2.80;0.82;;;;;;;1.02;69.41;101465.94;5589720;31;33881;-64
2022/01/29 03:12:40;;;;;;;3.95;1.08;;;;;;;1.01;69.55;101477.34;5589746;31;33893;-65
2022/01/29 03:15:43;;;;;;;5.93;1.40;;;;;;;1.08;69.25;101470.84;5576171;31;34719;-64
2022/01/29 03:18:46;;;;;;;5.97;0.90;;;;;;;0.99;69.45;101482.62;5575908;31;34635;-64
2022/01/29 03:21:48;;;;;;;2.33;1.10;;;;;;;1.01;69.46;101496.47;5575892;31;34122;-64
2022/01/29 03:24:51;;;;;;;4.05;0.95;;;;;;;1.01;69.28;101485.16;5589704;31;35175;-64
2022/01/29 03:27:54;;;;;;;3.35;1.00;;;;;;;0.93;69.57;101490.78;5589558;31;34134;-64
2022/01/29 03:30:57;;;;;;;5.97;1.45;;;;;;;1.05;68.71;101497.16;5589432;31;35234;-64
2022/01/29 03:33:59;;;;;;;4.32;0.90;;;;;;;1.01;68.96;101477.34;5589428;31;34295;-64
2022/01/29 03:37:04;;;;;;;3.95;1.00;;;;;;;0.99;69.37;101477.41;5589763;31;34726;-65
2022/01/29 03:40:08;;;;;;;2.50;0.80;;;;;;;0.94;69.31;101476.78;5589533;31;34088;-64
2022/01/29 03:43:14;;;;;;;10.00;1.15;;;;;;;0.88;69.31;101453.59;5589424;31;34040;-65
2022/01/29 03:46:17;;;;;;;3.17;1.20;;;;;;;0.90;68.97;101474.41;5589446;31;33974;-64
2022/01/29 03:49:20;;;;;;;3.85;1.27;;;;;;;0.96;68.18;101477.56;5589474;31;35180;-64
2022/01/29 03:52:23;;;;;;;3.92;0.93;;;;;;;0.92;68.52;101481.25;5575590;31;33944;-64
2022/01/29 03:55:26;;;;;;;3.62;1.00;;;;;;;0.91;68.41;101495.25;5589333;31;34035;-63
2022/01/29 03:58:28;;;;;;;3.37;0.80;;;;;;;0.88;68.30;101488.41;5589125;31;34713;-64
2022/01/29 04:01:31;;;;;;;2.00;0.95;;;;;;;0.95;67.68;101491.56;5589167;31;35274;-64
2022/01/29 04:04:34;;;;;;;2.12;0.88;;;;;;;0.87;68.20;101505.00;5575503;31;34180;-64
2022/01/29 04:07:38;;;;;;;4.90;0.80;;;;;;;0.77;68.53;101503.81;5575449;31;33911;-64
2022/01/29 04:10:42;;;;;;;2.70;1.10;;;;;;;0.83;68.06;101511.31;5562942;31;34704;-66
2022/01/29 04:13:47;;;;;;;3.17;1.08;;;;;;;0.82;68.19;101520.06;5589011;31;33884;-66
2022/01/29 04:16:50;;;;;;;3.67;1.10;;;;;;;0.77;68.80;101521.25;5588961;31;33916;-66
2022/01/29 04:19:53;;;;;;;5.95;1.33;;;;;;;0.82;68.49;101511.41;5589000;31;34047;-66
2022/01/29 04:22:55;;;;;;;4.30;1.45;;;;;;;0.84;68.52;101510.38;5588856;31;34015;-66
2022/01/29 04:26:00;;;;;;;3.00;1.08;;;;;;;0.77;68.94;101519.47;5589068;31;33852;-64
2022/01/29 04:29:07;;;;;;;2.60;0.98;;;;;;;0.81;68.48;101510.56;5588608;31;34902;-65
2022/01/29 04:32:15;;;;;;;4.18;1.10;;;;;;;0.81;68.34;101515.78;5588608;31;34603;-63
2022/01/29 04:35:18;;;;;;;3.65;1.00;;;;;;;0.79;68.22;101517.59;5574820;31;34052;-65
2022/01/29 04:38:21;;;;;;;4.15;1.23;;;;;;;0.78;68.58;101520.28;5574746;31;35437;-64
2022/01/29 04:41:24;;;;;;;3.95;1.05;;;;;;;0.76;68.36;101528.22;5588907;31;35245;-64
2022/01/29 04:44:26;;;;;;;5.82;1.50;;;;;;;0.72;68.62;101526.69;5588467;31;34005;-64
2022/01/29 04:47:29;;;;;;;6.10;1.30;;;;;;;0.73;68.38;101532.72;5588923;31;34103;-64
2022/01/29 04:50:32;;;;;;;2.35;1.17;;;;;;;0.67;68.66;101528.69;5588347;31;33883;-65
2022/01/29 04:53:35;;;;;;;6.30;1.20;;;;;;;0.66;68.77;101527.00;5574819;31;33987;-64
2022/01/29 04:56:38;;;;;;;6.78;1.45;;;;;;;0.64;68.55;101530.59;5574684;31;33993;-64
2022/01/29 04:59:41;;;;;;;2.53;1.10;;;;;;;0.56;69.05;101528.37;5588066;31;34583;-64
2022/01/29 05:02:44;;;;;;;6.15;1.30;;;;;;;0.67;68.60;101533.91;5588146;31;34001;-65
2022/01/29 05:05:46;;;;;;;4.07;0.98;;;;;;;0.69;68.52;101529.44;5588051;31;34247;-65
2022/01/29 05:08:49;;;;;;;4.22;1.20;;;;;;;0.76;67.88;101535.22;5588431;31;33961;-64
2022/01/29 05:11:53;;;;;;;1.83;0.77;;;;;;;0.64;68.16;101523.59;5587935;31;35170;-64
2022/01/29 05:28:22;;;;;;;6.82;1.10;;;;;;;0.83;66.21;101542.66;5590552;31;34125;-64
2022/01/29 05:31:24;;;;;;;5.57;1.10;;;;;;;0.77;66.38;101542.13;5590454;31;34062;-65
2022/01/29 05:34:28;;;;;;;5.18;1.65;;;;;;;0.74;66.52;101547.50;5576881;31;34003;-64
2022/01/29 05:37:30;;;;;;;6.07;1.45;;;;;;;0.76;66.44;101543.03;5590550;31;34295;-64
2022/01/29 05:40:33;;;;;;;4.20;1.20;;;;;;;0.76;66.62;101546.50;5590421;31;33941;-65
2022/01/29 05:43:36;;;;;;;4.53;1.05;;;;;;;0.80;66.08;101549.81;5590593;31;34358;-65
2022/01/29 05:46:39;;;;;;;3.97;1.17;;;;;;;0.95;65.36;101554.25;5590480;31;33947;-66
2022/01/29 05:49:42;;;;;;;2.80;0.90;;;;;;;0.91;65.17;101542.28;5590436;31;33883;-65
2022/01/29 05:52:44;;;;;;;2.60;0.88;;;;;;;0.86;65.35;101545.13;5576670;31;34819;-66
2022/01/29 05:55:47;;;;;;;4.87;1.12;;;;;;;0.78;65.62;101547.25;5590228;31;34405;-66
2022/01/29 05:58:50;;;;;;;5.18;1.23;;;;;;;0.67;66.06;101548.72;5590269;31;34021;-65
2022/01/29 06:01:53;;;;;;;7.18;1.50;;;;;;;0.53;66.20;101554.63;5590312;31;34078;-66
2022/01/29 06:04:56;;;;;;;3.12;0.90;;;;;;;0.51;65.99;101553.00;5576586;31;33876;-66
2022/01/29 06:07:59;;;;;;;3.00;0.93;;;;;;;0.42;66.08;101564.75;5576518;31;34229;-66
2022/01/29 06:11:02;;;;;;;3.00;1.12;;;;;;;0.48;66.01;101564.47;5589792;31;35091;-66
2022/01/29 06:14:05;;;;;;;4.70;1.40;;;;;;;0.31;66.96;101573.09;5590233;31;33966;-65
2022/01/29 06:17:08;;;;;;;3.80;1.27;;;;;;;0.03;67.54;101571.84;5576652;31;33939;-65
2022/01/29 06:20:11;;;;;;;4.68;1.25;;;;;;;-0.18;68.58;101581.50;5590161;31;34650;-65
2022/01/29 06:23:15;;;;;;;5.97;1.25;;;;;;;-0.22;69.13;101578.22;5590105;31;34643;-64
2022/01/29 06:26:18;;;;;;;6.18;1.30;;;;;;;-0.18;69.22;101586.72;5590122;31;33911;-65
2022/01/29 06:29:21;;;;;;;5.00;1.20;;;;;;;-0.19;69.06;101588.47;5590128;31;33913;-64
2022/01/29 06:32:24;;;;;;;3.95;1.37;;;;;;;-0.23;69.24;101581.72;5588851;31;33985;-64
2022/01/29 06:35:27;;;;;;;3.80;1.27;;;;;;;-0.03;68.54;101586.88;5590364;31;35054;-64
2022/01/29 06:38:30;;;;;;;4.37;1.58;;;;;;;0.03;68.57;101588.34;5590238;31;34138;-65
2022/01/29 06:41:33;;;;;;;6.72;1.60;;;;;;;0.14;68.36;101588.72;5589697;31;33952;-65
2022/01/29 06:44:35;;;;;;;4.80;1.02;;;;;;;0.40;67.32;101588.31;5589994;31;34613;-64
2022/01/29 06:47:38;;;;;;;4.75;1.30;;;;;;;0.53;66.71;101580.75;5576179;31;34053;-64
2022/01/29 06:50:41;;;;;;;2.65;1.25;;;;;;;0.72;66.61;101581.53;5590005;31;33956;-64
2022/01/29 06:53:44;;;;;;;7.45;1.25;;;;;;;1.01;64.55;101571.41;5589977;31;34076;-64
2022/01/29 06:56:47;;;;;;;4.47;1.60;;;;;;;1.15;64.10;101580.22;5590021;31;35311;-64
2022/01/29 06:59:49;;;;;;;3.10;1.10;;;;;;;1.30;62.75;101576.81;5590025;31;33988;-64
2022/01/29 07:02:52;;;;;;;2.20;1.08;;;;;;;1.40;62.32;101578.97;5590287;31;33907;-64
2022/01/29 07:05:55;;;;;;;3.25;1.10;;;;;;;1.45;62.61;101584.78;5589930;31;34583;-64
2022/01/29 07:08:58;;;;;;;5.57;1.40;;;;;;;1.43;62.32;101592.72;5589642;31;34871;-64
2022/01/29 07:12:08;;;;;;;5.30;1.42;;;;;;;1.47;61.89;101585.53;5589741;31;33857;-64
2022/01/29 07:15:12;;;;;;;6.22;1.40;;;;;;;1.66;61.00;101581.03;5589614;31;33885;-64
2022/01/29 07:18:15;;;;;;;5.55;1.33;;;;;;;1.61;60.76;101583.03;5589788;31;33942;-65
2022/01/29 07:21:18;;;;;;;3.30;1.35;;;;;;;1.59;59.80;101583.16;5589531;31;34689;-65
2022/01/29 07:24:21;;;;;;;3.72;1.00;;;;;;;1.57;59.65;101581.50;5589796;31;34539;-64
2022/01/29 07:27:24;;;;;;;4.75;1.08;;;;;;;1.71;59.19;101574.62;5589375;31;34056;-65
2022/01/29 07:30:27;;;;;;;3.45;1.20;;;;;;;1.80;58.73;101570.66;5589691;31;34125;-65
2022/01/29 07:33:29;;;;;;;3.85;1.40;;;;;;;1.74;58.71;101577.06;5589556;31;34354;-64
2022/01/29 07:36:32;;;;;;;5.30;1.12;;;;;;;1.73;57.94;101577.16;5589303;31;34035;-65
2022/01/29 07:39:35;;;;;;;3.78;1.27;;;;;;;1.82;58.17;101579.28;5575567;31;35486;-64
2022/01/29 07:42:38;;;;;;;5.72;1.50;;;;;;;1.81;59.15;101579.37;5589624;31;34020;-64
2022/01/29 07:45:41;;;;;;;4.30;1.62;;;;;;;1.83;59.95;101580.97;5588747;31;33914;-65
2022/01/29 07:48:44;;;;;;;5.03;1.67;;;;;;;1.88;61.20;101593.81;5575412;31;33860;-64
2022/01/29 07:51:46;;;;;;;8.93;1.48;;;;;;;2.22;60.98;101584.97;5589486;31;35271;-64
2022/01/29 07:54:49;;;;;;;11.15;2.12;;;;;;;2.18;61.71;101600.81;5589295;31;34335;-65
2022/01/29 07:57:52;;;;;;;7.40;1.90;;;;;;;2.31;61.96;101597.53;5589507;31;34015;-65
2022/01/29 08:00:54;;;;;;;9.50;2.10;;;;;;;2.66;61.35;101606.03;5589457;31;34399;-65
2022/01/29 08:03:58;;;;;;;5.25;1.70;;;;;;;2.74;62.21;101601.19;5589176;31;33974;-64
2022/01/29 08:07:00;;;;;;;6.62;1.80;;;;;;;2.60;63.23;101597.59;5575448;31;34084;-65
2022/01/29 08:10:04;;;;;;;6.82;1.73;;;;;;;2.53;63.72;101591.00;5588792;31;34090;-65
2022/01/29 08:13:06;;;;;;;6.72;1.77;;;;;;;2.66;63.40;101592.94;5589102;31;34155;-64
2022/01/29 08:16:10;;;;;;;8.70;1.70;;;;;;;2.60;63.79;101587.13;5589008;31;35269;-65
2022/01/29 08:19:12;;;;;;;11.20;2.20;;;;;;;2.40;63.75;101589.16;5588981;31;35234;-64
2022/01/29 08:22:17;;;;;;;8.13;1.70;;;;;;;2.31;64.51;101581.84;5588814;31;33983;-65
2022/01/29 08:25:20;;;;;;;7.55;1.70;;;;;;;2.56;63.41;101582.16;5588998;31;34758;-64
2022/01/29 08:28:24;;;;;;;6.00;1.60;;;;;;;2.71;62.76;101585.66;5588557;31;34597;-64
2022/01/29 08:31:26;;;;;;;9.93;1.92;;;;;;;2.54;62.18;101586.63;5588517;31;34587;-65
2022/01/29 08:34:29;;;;;;;4.35;1.40;;;;;;;2.50;62.15;101580.72;5588541;31;35249;-65
2022/01/29 08:37:32;;;;;;;13.25;1.90;;;;;;;2.51;62.45;101586.81;5588510;31;34185;-64
2022/01/29 08:40:35;;;;;;;6.65;1.98;;;;;;;2.39;62.18;101590.09;5588532;31;34180;-64
2022/01/29 08:43:38;;;;;;;7.43;1.70;;;;;;;2.48;62.41;101584.34;5588270;31;35278;-64
2022/01/29 08:46:40;;;;;;;6.75;1.70;;;;;;;2.49;61.96;101589.50;5588347;31;34069;-65
2022/01/29 08:49:43;;;;;;;6.82;1.52;;;;;;;2.54;62.03;101602.34;5588195;31;33960;-65
2022/01/29 08:52:46;;;;;;;8.25;1.62;;;;;;;2.52;61.31;101596.31;5588659;31;34388;-65
2022/01/29 08:55:49;;;;;;;5.90;1.83;;;;;;;2.62;60.43;101598.34;5588950;31;33876;-65
2022/01/29 08:58:51;;;;;;;7.18;1.90;;;;;;;2.55;60.26;101604.88;5577070;31;32532;-64
2022/01/29 09:01:54;;;;;;;7.78;2.10;;;;;;;2.85;59.31;101611.91;5577154;31;34664;-65
2022/01/29 09:04:57;;;;;;;6.18;1.75;;;;;;;2.94;59.21;101612.22;5590821;31;34602;-65
2022/01/29 09:08:02;;;;;;;8.30;2.40;;;;;;;2.93;58.64;101615.78;5590678;31;34080;-64
2022/01/29 09:11:06;;;;;;;7.10;1.67;;;;;;;2.80;58.71;101617.44;5590439;31;34672;-65
2022/01/29 09:14:09;;;;;;;7.10;1.60;;;;;;;2.71;58.48;101627.59;5590723;31;34381;-65
2022/01/29 09:17:12;;;;;;;3.97;1.35;;;;;;;2.69;58.49;101632.06;5590694;31;33863;-65
2022/01/29 09:20:15;;;;;;;6.18;1.70;;;;;;;2.74;58.91;101619.53;5576799;31;33989;-64
2022/01/29 09:23:18;;;;;;;7.05;1.83;;;;;;;2.76;58.52;101620.31;5590539;31;34038;-65
2022/01/29 09:26:22;;;;;;;5.25;1.37;;;;;;;2.90;58.83;101629.06;5576973;31;33873;-65
2022/01/29 09:29:25;;;;;;;5.12;1.95;;;;;;;2.88;58.44;101620.44;5576408;31;33921;-65
2022/01/29 09:32:29;;;;;;;7.05;2.03;;;;;;;3.01;58.76;101613.53;5590480;31;35205;-65
2022/01/29 09:35:31;;;;;;;9.95;2.10;;;;;;;2.86;59.78;101609.19;5576599;31;33990;-65
2022/01/29 09:38:35;;;;;;;10.07;2.17;;;;;;;3.13;59.12;101603.28;5590406;31;34743;-65
2022/01/29 09:41:43;;;;;;;4.78;2.00;;;;;;;3.34;58.54;101600.22;5589803;31;34487;-66
2022/01/29 09:44:47;;;;;;;5.95;1.80;;;;;;;3.48;57.35;101607.28;5576539;31;34006;-64
2022/01/29 09:48:01;;;;;;;7.47;1.83;;;;;;;3.61;57.03;101605.59;5590214;31;35235;-64
2022/01/29 09:51:08;;;;;;;7.00;1.92;;;;;;;3.94;56.14;101584.28;5590493;31;34630;-66
2022/01/29 09:54:11;;;;;;;5.70;1.80;;;;;;;4.12;55.19;101590.16;5576447;31;33942;-66
2022/01/29 09:57:14;;;;;;;7.43;1.90;;;;;;;4.06;54.47;101586.16;5589644;31;35272;-65
2022/01/29 10:00:17;;;;;;;5.32;1.80;;;;;;;4.21;53.66;101571.22;5575758;31;34074;-65
2022/01/29 10:03:20;;;;;;;5.53;1.40;;;;;;;4.38;53.31;101561.31;5589838;31;34595;-65
2022/01/29 10:06:23;;;;;;;9.50;1.83;;;;;;;4.37;52.93;101566.66;5589934;31;33930;-64
2022/01/29 10:09:33;;;;;;;5.70;1.70;;;;;;;4.45;52.69;101567.00;5589996;31;33911;-65
2022/01/29 10:12:37;;;;;;;5.25;1.45;;;;;;;4.37;53.19;101556.97;5575963;31;34911;-66
2022/01/29 10:15:40;;;;;;;8.45;1.90;;;;;;;4.59;53.03;101558.22;5589857;31;33896;-65
2022/01/29 10:18:47;;;;;;;10.35;2.00;;;;;;;4.27;54.45;101547.16;5576109;31;33922;-64
2022/01/29 10:21:50;;;;;;;7.12;1.70;;;;;;;4.53;53.76;101542.84;5589865;31;33970;-65
2022/01/29 10:24:53;;;;;;;13.00;2.17;;;;;;;4.62;54.51;101543.09;5590403;31;34176;-65
2022/01/29 10:28:10;;;;;;;8.80;1.95;;;;;;;4.57;54.85;101534.66;5575900;31;33842;-64
2022/01/29 10:31:13;;;;;;;6.03;1.92;;;;;;;4.45;55.75;101543.38;5589823;31;34245;-65
2022/01/29 10:34:26;;;;;;;10.73;2.22;;;;;;;4.30;57.04;101539.94;5589882;31;34110;-65
2022/01/29 10:37:29;;;;;;;8.70;2.58;;;;;;;4.47;57.10;101528.31;5576018;31;34140;-64
2022/01/29 10:40:34;;;;;;;11.48;2.03;;;;;;;4.85;56.88;101522.28;5589628;31;34644;-64
2022/01/29 10:43:59;;;;;;;12.45;2.85;;;;;;;4.60;57.59;101533.62;5589606;31;34129;-64
2022/01/29 10:47:02;;;;;;;16.23;2.83;;;;;;;4.51;58.30;101516.66;5589761;31;34577;-67
2022/01/29 10:50:06;;;;;;;8.00;2.50;;;;;;;4.67;58.28;101519.13;5589852;31;34705;-65
2022/01/29 10:53:26;;;;;;;15.63;2.42;;;;;;;4.75;58.82;101522.91;5589636;31;33983;-65
2022/01/29 10:56:28;;;;;;;13.45;2.90;;;;;;;4.30;60.75;101511.06;5575567;31;34058;-64
2022/01/29 10:59:35;;;;;;;10.65;2.83;;;;;;;4.49;60.50;101513.31;5575674;31;34011;-64
2022/01/29 11:02:37;;;;;;;13.07;2.67;;;;;;;4.65;60.73;101510.47;5589222;31;34831;-65
2022/01/29 11:05:41;;;;;;;10.45;2.47;;;;;;;4.73;60.26;101516.94;5589679;31;34561;-66
2022/01/29 11:08:45;;;;;;;11.20;2.20;;;;;;;4.47;61.62;101506.47;5590003;31;34617;-65
2022/01/29 11:11:50;;;;;;;12.20;2.20;;;;;;;4.26;62.49;101499.03;5589615;31;34066;-65
2022/01/29 11:14:55;;;;;;;8.60;2.78;;;;;;;4.36;62.34;101500.12;5576077;31;34393;-66
2022/01/29 11:17:57;;;;;;;12.02;2.53;;;;;;;4.36;62.89;101507.16;5588646;31;34671;-65
2022/01/29 11:21:02;;;;;;;8.18;2.08;;;;;;;4.56;62.02;101501.44;5589335;31;34524;-65
2022/01/29 11:24:06;;;;;;;7.95;2.28;;;;;;;4.49;62.42;101494.06;5589876;31;34024;-65
2022/01/29 11:27:32;;;;;;;11.00;2.20;;;;;;;4.54;62.50;101494.63;5589662;31;34609;-64
2022/01/29 11:30:35;;;;;;;12.80;3.05;;;;;;;4.96;61.38;101483.81;5589295;31;35222;-67
2022/01/29 11:33:59;;;;;;;15.73;2.50;;;;;;;5.19;60.05;101479.59;5589452;31;33930;-66
2022/01/29 11:37:02;;;;;;;10.13;2.30;;;;;;;4.93;61.18;101462.16;5589568;31;34270;-66
2022/01/29 11:40:14;;;;;;;12.88;2.42;;;;;;;4.97;60.75;101464.47;5562779;31;34577;-66
2022/01/29 11:43:17;;;;;;;11.93;2.30;;;;;;;4.87;61.14;101462.56;5589130;31;34183;-66
2022/01/29 11:46:32;;;;;;;12.10;2.42;;;;;;;4.81;61.34;101462.06;5589227;31;34188;-66
2022/01/29 11:49:35;;;;;;;11.32;2.10;;;;;;;4.86;61.40;101463.50;5589404;31;33917;-64
2022/01/29 11:52:53;;;;;;;17.65;3.22;;;;;;;4.89;60.97;101458.88;5589166;31;34578;-65
2022/01/29 11:55:57;;;;;;;13.27;2.37;;;;;;;4.31;63.39;101448.81;5589107;31;33827;-66
2022/01/29 11:59:17;;;;;;;11.27;2.53;;;;;;;4.78;62.48;101448.28;5589491;31;34126;-65
2022/01/29 12:02:20;;;;;;;10.13;2.60;;;;;;;5.13;61.06;101444.03;5575501;31;34626;-64
2022/01/29 12:05:29;;;;;;;11.02;2.60;;;;;;;4.64;62.78;101436.09;5575281;31;35245;-65
2022/01/29 12:08:38;;;;;;;10.73;2.28;;;;;;;4.43;64.17;101431.41;5588913;31;34612;-65
2022/01/29 12:11:42;;;;;;;13.68;2.70;;;;;;;4.64;63.80;101430.81;5589091;31;34767;-64
2022/01/29 12:14:47;;;;;;;12.00;2.65;;;;;;;4.46;64.64;101426.78;5588929;31;33988;-65
2022/01/29 12:18:00;;;;;;;9.55;2.35;;;;;;;4.54;64.75;101421.03;5588758;31;35353;-65
2022/01/29 12:21:05;;;;;;;13.48;2.58;;;;;;;4.56;64.95;101414.72;5588812;31;33957;-65
2022/01/29 12:24:08;;;;;;;14.15;2.40;;;;;;;4.53;65.45;101404.41;5588722;31;35219;-66
2022/01/29 12:27:11;;;;;;;11.85;2.78;;;;;;;4.61;65.15;101402.09;5588774;31;34577;-66
2022/01/29 12:30:21;;;;;;;8.23;2.58;;;;;;;4.58;65.47;101391.81;5589613;31;34758;-64
2022/01/29 12:33:24;;;;;;;20.17;2.67;;;;;;;4.45;66.10;101393.59;5591286;31;34493;-65
2022/01/29 12:36:33;;;;;;;15.25;2.60;;;;;;;4.49;66.40;101378.47;5591080;31;34285;-65
2022/01/29 12:39:37;;;;;;;12.85;3.08;;;;;;;4.69;65.53;101364.81;5591005;31;34007;-65
2022/01/29 12:42:45;;;;;;;18.23;2.80;;;;;;;4.68;65.81;101357.84;5577023;31;34225;-65
2022/01/29 12:45:49;;;;;;;16.67;3.20;;;;;;;4.46;66.23;101349.75;5591237;31;34509;-66
2022/01/29 12:49:11;;;;;;;13.70;3.12;;;;;;;4.63;65.53;101350.28;5590837;31;34714;-65
2022/01/29 12:52:16;;;;;;;11.32;2.25;;;;;;;4.50;65.80;101336.31;5590815;31;33989;-65
2022/01/29 12:55:19;;;;;;;14.90;2.85;;;;;;;4.51;65.80;101343.25;5591177;31;35311;-65
2022/01/29 12:58:33;;;;;;;16.73;3.55;;;;;;;4.57;65.76;101334.94;5590897;31;35192;-66
2022/01/29 13:01:38;;;;;;;9.80;2.53;;;;;;;4.59;65.60;101330.44;5590808;31;33829;-66
2022/01/29 13:04:46;;;;;;;13.65;2.83;;;;;;;4.50;65.63;101325.81;5577343;31;34053;-65
2022/01/29 13:07:49;;;;;;;17.35;2.92;;;;;;;4.55;65.51;101326.31;5576928;31;34076;-66
2022/01/29 13:10:52;;;;;;;8.18;2.50;;;;;;;4.64;65.51;101324.84;5590608;31;34086;-66
2022/01/29 13:13:58;;;;;;;12.13;2.50;;;;;;;4.64;65.57;101330.09;5590505;31;34604;-66
2022/01/29 13:17:04;;;;;;;12.20;2.90;;;;;;;4.57;65.33;101324.44;5590241;31;34721;-65
2022/01/29 13:20:13;;;;;;;11.95;2.65;;;;;;;4.69;65.38;101320.12;5590584;31;34848;-66
2022/01/29 13:23:16;;;;;;;10.20;2.75;;;;;;;4.85;64.61;101325.97;5576647;31;33918;-65
2022/01/29 13:26:20;;;;;;;12.90;2.97;;;;;;;4.71;64.89;101326.09;5590420;31;34069;-66
2022/01/29 13:29:32;;;;;;;10.82;2.80;;;;;;;4.75;64.78;101317.03;5590262;31;33932;-66
2022/01/29 13:32:38;;;;;;;10.73;2.60;;;;;;;4.64;65.21;101316.97;5590917;31;33977;-66
2022/01/29 13:35:43;;;;;;;15.70;3.30;;;;;;;4.44;66.80;101310.47;5590517;31;34386;-66
2022/01/29 13:39:05;;;;;;;18.60;3.20;;;;;;;4.46;66.54;101312.97;5590428;31;34015;-65
2022/01/29 13:42:17;;;;;;;16.85;3.28;;;;;;;4.47;66.59;101307.63;5589991;31;34355;-66
2022/01/29 13:45:22;;;;;;;11.50;3.25;;;;;;;4.50;66.68;101302.16;5590528;31;34277;-65
2022/01/29 13:48:27;;;;;;;13.27;3.40;;;;;;;4.49;66.79;101303.09;5590483;31;34048;-66
2022/01/29 13:51:41;;;;;;;12.18;3.37;;;;;;;4.58;66.54;101301.63;5590575;31;34032;-66
2022/01/29 13:54:44;;;;;;;11.38;3.22;;;;;;;4.51;66.84;101298.56;5590402;31;35178;-66
2022/01/29 13:58:07;;;;;;;12.35;3.37;;;;;;;4.41;67.41;101278.28;5590798;31;33968;-65
2022/01/29 14:01:10;;;;;;;6.87;2.60;;;;;;;4.39;67.21;101275.78;5590321;31;35165;-66
2022/01/29 14:04:28;;;;;;;7.85;2.83;;;;;;;4.35;67.44;101282.22;5590243;31;34662;-66
2022/01/29 14:07:36;;;;;;;12.35;3.37;;;;;;;4.38;67.22;101279.34;5590321;31;34193;-65
2022/01/29 14:10:59;;;;;;;12.23;3.65;;;;;;;4.37;67.83;101270.63;5578913;31;34026;-65
2022/01/29 14:14:02;;;;;;;12.07;3.33;;;;;;;4.46;67.91;101252.53;5590246;31;33981;-66
2022/01/29 14:17:07;;;;;;;13.32;3.47;;;;;;;4.53;68.05;101245.91;5590107;31;33902;-66
2022/01/29 14:20:19;;;;;;;15.13;3.78;;;;;;;4.56;67.74;101235.19;5590007;31;34581;-66
2022/01/29 14:23:22;;;;;;;18.37;3.33;;;;;;;4.58;68.02;101235.94;5590095;31;34562;-66
2022/01/29 14:26:45;;;;;;;16.95;4.40;;;;;;;4.59;67.77;101221.84;5589846;31;34029;-66
2022/01/29 14:29:49;;;;;;;13.23;3.92;;;;;;;4.70;67.87;101214.00;5590005;31;33886;-66
2022/01/29 14:32:55;;;;;;;15.02;3.67;;;;;;;4.53;67.99;101217.00;5589914;31;34545;-65
2022/01/29 14:35:58;;;;;;;15.75;4.43;;;;;;;4.54;68.62;101219.53;5590264;31;34327;-66
2022/01/29 14:39:02;;;;;;;16.15;3.80;;;;;;;4.49;68.19;101213.78;5590122;31;34090;-66
2022/01/29 14:42:08;;;;;;;12.70;3.50;;;;;;;4.52;67.81;101207.44;5589742;31;33856;-66